Weather observations for the past three days for
Haines Memorial Airport
Imperial (Metric)
Date Time (edt) Wind (mph) Vis. (mi.) Weather Sky Cond. Temperature (ºF) Relative Humidity Wind Chill (°F) Heat Index (°F) Pressure Precipitation (in)
Air Dwpt 6 hour altimeter (in) sea level (mb) 1 hr 3 hr 6 hr
Max. Min.
06 16:15 NW 15 G 23 10.00 Mostly Cloudy BKN065 53.6 28.4 38% 29.92 0.0
06 15:55 W 12 10.00 Mostly Cloudy BKN065 53.6 30.2 41% 29.92 0.0
06 15:35 NW 15 10.00 Mostly Cloudy BKN065 53.6 30.2 41% 29.92 0.0
06 15:15 W 12 G 20 10.00 Partly Cloudy SCT065 55.4 32 41% 29.92 0.0
06 14:55 W 13 G 20 10.00 A Few Clouds FEW065 55.4 32 41% 29.92 0.0
06 14:35 W 12 G 21 10.00 A Few Clouds FEW065 55.4 32 41% 29.92 0.0
06 14:15 NW 12 G 18 10.00 Partly Cloudy SCT065 53.6 30.2 41% 29.92 0.0
06 13:55 NW 13 G 18 10.00 Mostly Cloudy BKN065 53.6 32 54.3 41.5 44% 29.92 0.0
06 13:35 NW 15 G 20 10.00 Partly Cloudy SCT065 53.6 30.2 41% 29.92 0.0
06 13:15 W 9 10.00 A Few Clouds FEW065 53.6 32 44% 29.92 0.0
06 12:55 NW 8 G 17 10.00 A Few Clouds FEW065 53.6 28.4 38% 29.92 0.0
06 12:35 NW 7 10.00 Fair CLR 51.8 30.2 44% 29.93 0.0
06 12:15 NW 10 G 20 10.00 Fair CLR 53.6 30.2 41% 29.93 0.0
06 11:55 NW 10 10.00 Fair CLR 51.8 28.4 41% 29.93 0.0
06 11:35 NW 8 10.00 Fair CLR 51.8 28.4 41% 29.93 0.0
06 11:15 N 5 10.00 Fair CLR 50 26.6 40% 49 29.93 0.0
06 10:55 NW 9 10.00 Fair CLR 50 26.6 40% 47 29.93 0.0
06 10:35 Vrbl 3 10.00 Fair CLR 48.2 26.6 43% 29.93 0.0
06 10:15 NW 8 10.00 Fair CLR 48.2 24.8 40% 45 29.92 0.0
06 09:55 Vrbl 5 10.00 Fair CLR 48.2 26.6 43% 47 29.91 0.0
06 09:35 N 9 10.00 Fair CLR 48.2 26.6 43% 45 29.91 0.0
06 09:15 N 9 10.00 Fair CLR 48.2 28.4 46% 45 29.9 0.0
06 08:55 N 8 10.00 Fair CLR 46.4 28.4 50% 43 29.9 0.0
06 08:35 N 6 10.00 Fair CLR 44.6 30.2 57% 42 29.9 0.0
06 08:15 NW 7 10.00 Fair CLR 42.8 30.2 61% 39 29.89 0.0
06 07:55 N 5 10.00 Fair CLR 42.8 32 46.4 36.9 66% 41 29.88 0.0
06 07:35 NW 2 10.00 Fair CLR 39.2 33.8 81% 29.87 0.0
06 07:15 N 2 10.00 Fair CLR 39.2 32 75% 29.86 0.0
06 06:55 NW 2 10.00 Fair CLR 37.4 32 81% 29.86 0.0
06 06:35 NW 3 10.00 Fair CLR 39.2 32 75% 29.85 0.0
06 06:15 NW 3 10.00 Fair CLR 37.4 32 81% 29.85 0.0
06 05:55 NW 2 10.00 Fair CLR 41 32 70% 29.84 0.0
06 05:35 NW 3 10.00 Fair CLR 39.2 32 75% 29.84 0.0
06 05:15 NW 5 10.00 Fair CLR 39.2 32 75% 36 29.84 0.0
06 04:55 NW 6 10.00 Fair CLR 41 32 70% 38 29.83 0.0
06 04:35 Vrbl 5 10.00 Fair CLR 42.8 32 66% 41 29.82 0.0
06 04:15 N 5 10.00 Fair CLR 44.6 32 61% 43 29.82 0.0
06 03:55 N 7 10.00 A Few Clouds FEW100 44.6 32 61% 41 29.82 0.0
06 03:35 N 7 10.00 Mostly Cloudy BKN110 46.4 32 57% 43 29.82 0.0
06 03:15 N 5 10.00 Mostly Cloudy BKN120 46.4 35.6 66% 45 29.82 0.0
06 02:55 NW 5 10.00 Mostly Cloudy BKN120 46.4 37.4 71% 45 29.82 0.0
06 02:35 NW 5 10.00 Partly Cloudy SCT120 46.4 37.4 71% 45 29.82 0.0
06 02:15 NW 3 10.00 Overcast OVC120 46.4 39.2 76% 29.82 0.0
06 01:55 NW 2 10.00 Overcast OVC120 44.6 41 49.8 45.1 87% 29.83 0.0
06 01:35 W 3 10.00 Overcast SCT100 OVC120 44.6 41 87% 29.83 0.0
06 01:15 NW 2 10.00 Overcast BKN100 OVC120 44.6 41 87% 29.83 0.0
06 00:55 W 3 10.00 Mostly Cloudy BKN090 46.4 41 82% 29.83 0.0
06 00:35 W 3 10.00 Mostly Cloudy BKN100 46.4 41 82% 29.82 0.0
06 00:15 Calm 10.00 Overcast OVC110 46.4 42.8 87% 29.81 0.0
05 23:55 NW 2 10.00 Mostly Cloudy BKN110 46.4 39.2 76% 29.81 0.0
05 23:35 W 1 10.00 Fair CLR 46.4 41 82% 29.81 0.0
05 23:15 Calm 10.00 Fair CLR 46.4 42.8 87% 29.81 0.0
05 22:55 SW 1 10.00 Partly Cloudy SCT110 46.4 39.2 76% 29.81 0.0
05 22:35 Calm 10.00 Overcast OVC100 46.4 41 82% 29.81 0.0
05 22:15 W 2 10.00 Overcast OVC100 46.4 41 82% 29.81 0.0
05 21:55 S 1 10.00 Overcast OVC090 46.4 39.2 76% 29.8 0.0
05 21:35 Calm 10.00 Overcast OVC090 48.2 39.2 71% 29.79 0.0
05 21:15 N 1 10.00 Overcast OVC090 48.2 35.6 62% 29.79 0.0
05 20:55 N 1 10.00 Overcast OVC090 50 33.8 54% 29.78 0.0
05 20:35 N 3 10.00 Mostly Cloudy BKN090 50 32 50% 29.78 0.0
05 20:15 N 2 10.00 Partly Cloudy SCT090 50 32 50% 29.78 0.0
05 19:55 NW 3 10.00 Mostly Cloudy BKN090 50 35.6 53.6 49.1 58% 29.78 0.0
05 19:35 W 2 10.00 Overcast OVC100 50 35.6 58% 29.79 0.0
05 19:15 NW 3 10.00 Overcast OVC100 50 33.8 54% 29.79 0.0
05 18:55 NW 6 10.00 Overcast OVC110 50 32 50% 48 29.79 0.0
05 18:35 NW 7 10.00 Mostly Cloudy BKN110 50 32 50% 48 29.79 0.0
05 18:15 NW 7 10.00 Partly Cloudy SCT120 50 32 50% 48 29.79 0.0
05 17:55 NW 8 10.00 Partly Cloudy SCT120 50 32 50% 47 29.79 0.0
05 17:35 W 10 10.00 Mostly Cloudy SCT090 BKN120 50 32 50% 46 29.79 0.0
05 17:15 W 12 10.00 A Few Clouds FEW090 50 30.2 47% 46 29.79 0.0
05 16:55 W 10 10.00 Partly Cloudy FEW080 SCT095 50 30.2 47% 46 29.78 0.0
05 16:35 NW 10 10.00 Mostly Cloudy BKN080 51.8 28.4 41% 29.79 0.0
05 16:15 NW 12 10.00 Overcast OVC080 51.8 32 47% 29.79 0.0
05 15:55 NW 14 10.00 Overcast BKN070 OVC090 51.8 33.8 50% 29.79 0.0
05 15:35 NW 10 G 16 10.00 Mostly Cloudy BKN080 BKN090 53.6 35.6 51% 29.8 0.0
05 15:15 W 8 10.00 Overcast OVC080 51.8 35.6 54% 29.79 0.0
05 14:55 W 8 10.00 Overcast OVC070 51.8 37.4 58% 29.79 0.0
05 14:35 NW 8 10.00 Overcast OVC080 51.8 35.6 54% 29.79 0.0
05 14:15 NW 10 10.00 Overcast OVC080 51.8 35.6 54% 29.79 0.0
05 13:55 W 14 G 20 10.00 Overcast OVC080 51.8 35.6 53.6 44.2 54% 29.79 0.0
05 13:35 W 10 10.00 Mostly Cloudy BKN090 53.6 37.4 54% 29.78 0.0
05 13:15 W 10 10.00 Overcast OVC090 51.8 37.4 58% 29.78 0.0
05 12:55 W 7 10.00 Overcast OVC090 50 39.2 67% 48 29.78 0.0
05 12:35 NW 8 10.00 Mostly Cloudy BKN090 50 39.2 67% 47 29.77 0.0
05 12:15 NW 7 10.00 Partly Cloudy FEW050 SCT100 48.2 39.2 71% 46 29.77 0.0
05 11:55 NW 9 10.00 Mostly Cloudy FEW049 FEW075 BKN120 46.4 41 82% 42 29.78 0.0
05 11:35 NW 6 10.00 Light Rain FEW039 BKN090 BKN120 44.6 39.2 81% 42 29.77 0.0
05 11:15 NW 12 10.00 Light Rain FEW065 OVC090 44.6 41 87% 39 29.79 0.0
05 10:55 W 9 8.00 Light Rain FEW065 OVC075 44.6 42.8 93% 40 29.8 0.0 0.02
05 10:35 W 8 6.00 Light Rain Fog/Mist SCT065 OVC075 44.6 42.8 93% 41 29.79 0.0
05 10:15 NW 9 6.00 Light Rain Fog/Mist OVC070 44.6 41 87% 40 29.78 0.0
05 09:55 NW 9 10.00 Light Rain BKN070 OVC080 46.4 39.2 76% 42 29.77 0.0
05 09:35 NW 13 10.00 Overcast OVC080 48.2 41 76% 43 29.76 0.0
05 09:15 NW 14 10.00 Overcast OVC090 50 39.2 67% 45 29.74 0.0
05 08:55 NW 12 10.00 Overcast OVC090 50 39.2 67% 46 29.72 0.0
05 08:35 NW 13 10.00 Mostly Cloudy BKN090 50 41 71% 46 29.72 0.0
05 08:15 NW 14 10.00 Mostly Cloudy BKN090 BKN110 50 39.2 67% 45 29.7 0.0
05 07:55 W 10 10.00 A Few Clouds FEW090 FEW110 51.8 41 57.2 48.9 67% 29.69 0.0
05 07:35 W 3 10.00 A Few Clouds FEW075 FEW085 50 41 71% 29.67 0.0
05 07:15 NW 8 10.00 Overcast FEW080 OVC095 50 39.2 67% 47 29.67 0.0
05 06:55 W 8 10.00 Overcast OVC095 50 41 71% 47 29.69 0.0
05 06:35 W 8 10.00 Mostly Cloudy BKN095 BKN120 50 39.2 67% 47 29.67 0.0
05 06:15 NW 7 10.00 Partly Cloudy SCT095 SCT120 51.8 37.4 58% 29.66 0.0
05 05:55 NW 10 10.00 Partly Cloudy SCT095 51.8 41 67% 29.64 0.0
05 05:35 W 9 10.00 Light Rain FEW070 SCT085 BKN120 51.8 44.6 77% 29.63 0.0
05 05:15 W 10 10.00 Mostly Cloudy BKN085 BKN100 55.4 48.2 77% 29.63 0.0
05 04:55 SW 5 10.00 Mostly Cloudy SCT080 BKN110 55.4 53.6 94% 29.61 0.0
05 04:35 SW 5 10.00 Partly Cloudy SCT080 55.4 53.6 94% 29.62 0.0
05 04:15 SW 6 10.00 A Few Clouds FEW080 55.4 53.6 94% 29.61 0.0
05 03:55 W 5 10.00 Partly Cloudy SCT080 55.4 53.6 94% 29.6 0.0
05 03:35 SW 6 10.00 Mostly Cloudy BKN080 55.4 53.6 94% 29.61 0.0
05 03:15 W 7 10.00 Fair CLR 55.4 53.6 94% 29.6 0.0
05 02:55 W 5 10.00 Fair CLR 55.4 53.6 94% 29.59 0.0
05 02:35 W 6 10.00 A Few Clouds FEW065 57.2 53.6 88% 29.59 0.0
05 02:15 W 5 10.00 Overcast OVC065 57.2 53.6 88% 29.58 0.0
05 01:55 SW 8 10.00 Partly Cloudy SCT065 57.2 53.6 69.1 56.1 88% 29.58 0.0
05 01:35 SW 8 10.00 A Few Clouds FEW070 57.2 53.6 88% 29.57 0.0
05 01:15 SW 8 10.00 Mostly Cloudy FEW070 BKN080 57.2 53.6 88% 29.56 0.0
05 00:55 S 15 G 20 10.00 Overcast BKN090 OVC120 57.2 53.6 88% 29.55 0.0 0.01
05 00:35 S 16 G 26 10.00 Mostly Cloudy BKN110 57.2 53.6 88% 29.54 0.0
05 00:15 S 24 G 30 10.00 Light Rain and Breezy BKN110 57.2 53.6 88% 29.51 0.0
04 23:55 SW 9 G 16 10.00 Partly Cloudy FEW085 SCT110 59 53.6 82% 29.57 0.0
04 23:35 SW 12 10.00 Light Rain FEW075 SCT090 BKN110 59 53.6 82% 29.53 0.0
04 23:15 SW 15 G 24 10.00 A Few Clouds FEW120 59 53.6 82% 29.55 0.0
04 22:55 S 9 10.00 Light Rain FEW110 59 53.6 82% 29.55 0.0 0.09
04 22:35 S 5 10.00 Light Rain FEW060 SCT070 BKN100 59 53.6 82% 29.56 0.0
04 22:15 W 12 G 20 10.00 Light Rain SCT060 BKN075 BKN085 59 55.4 88% 29.59 0.0
04 21:55 SW 16 G 23 10.00 Overcast SCT065 BKN090 OVC110 64.4 53.6 68% 29.56 0.0
04 21:35 SW 21 G 32 10.00 Light Rain and Breezy SCT100 OVC120 68 53.6 60% 29.55 0.0
04 21:15 SW 10 10.00 Mostly Cloudy FEW090 BKN120 68 53.6 60% 29.52 0.0
04 20:55 SW 14 10.00 Mostly Cloudy BKN110 66.2 53.6 64% 29.51 0.0
04 20:35 SW 16 10.00 Overcast OVC100 68 53.6 60% 29.51 0.0
04 20:15 SW 15 G 24 10.00 Overcast BKN100 OVC120 68 53.6 60% 29.52 0.0
04 19:55 SW 13 G 17 10.00 Mostly Cloudy BKN100 68 53.6 77 66.4 60% 29.52 0.0 0.03
04 19:35 SW 13 G 21 10.00 Mostly Cloudy FEW070 BKN100 BKN120 68 53.6 60% 29.52 0.0
04 19:15 SW 9 G 21 10.00 Light Rain SCT065 SCT090 SCT120 66.2 55.4 68% 29.52 0.0
04 18:55 SW 9 G 17 10.00 Partly Cloudy SCT075 SCT100 69.8 53.6 57% 29.52 0.0
04 18:35 W 7 10.00 Overcast BKN070 BKN085 OVC100 68 55.4 64% 29.52 0.0
04 18:15 W 12 10.00 Light Rain BKN070 OVC095 68 53.6 60% 29.52 0.0
04 17:55 W 12 G 18 10.00 Rain FEW020 BKN075 OVC085 69.8 53.6 57% 29.51 0.0 0.02
04 17:35 W 14 G 30 9.00 Light Rain BKN075 BKN085 BKN110 73.4 51.8 47% 29.51 0.0
04 17:15 SW 10 10.00 Mostly Cloudy SCT075 BKN100 75.2 50 41% 78 29.51 0.0
04 16:55 SW 13 G 20 10.00 Mostly Cloudy FEW065 SCT080 BKN100 75.2 50 41% 78 29.52 0.0
04 16:35 SW 16 G 23 10.00 Mostly Cloudy SCT065 BKN090 75.2 51.8 44% 78 29.52 0.0
04 16:15 SW 13 G 26 10.00 Partly Cloudy FEW065 SCT080 75.2 51.8 44% 78 29.53 0.0
04 15:55 SW 13 10.00 Mostly Cloudy SCT055 BKN065 BKN080 73.4 53.6 50% 29.54 0.0
04 15:35 SW 13 G 22 10.00 Mostly Cloudy BKN065 BKN085 73.4 53.6 50% 29.55 0.0
04 15:15 SW 15 G 26 10.00 Mostly Cloudy BKN060 BKN070 73.4 53.6 50% 29.56 0.0
04 14:55 S 17 G 25 10.00 Mostly Cloudy SCT060 BKN070 73.4 51.8 47% 29.56 0.0
04 14:35 SW 18 G 26 10.00 Partly Cloudy SCT060 SCT070 73.4 50 44% 29.57 0.0
04 14:15 SW 14 G 24 10.00 A Few Clouds FEW060 73.4 50 44% 29.58 0.0
04 13:55 SW 16 G 28 10.00 Fair CLR 73.4 48.2 73.2 50.9 41% 29.58 0.0
04 13:35 SW 14 G 28 10.00 Fair CLR 71.6 46.4 41% 29.59 0.0
04 13:15 SW 13 G 28 10.00 A Few Clouds FEW075 71.6 44.6 38% 29.6 0.0
04 12:55 SW 9 G 24 10.00 Fair CLR 71.6 44.6 38% 29.61 0.0
04 12:35 SW 9 G 16 10.00 Fair CLR 71.6 46.4 41% 29.62 0.0
04 12:15 S 13 G 16 10.00 Fair CLR 69.8 48.2 46% 29.63 0.0
04 11:55 S 14 G 18 10.00 Fair CLR 68 46.4 46% 29.63 0.0
04 11:35 SW 14 G 18 10.00 Fair CLR 68 48.2 49% 29.64 0.0
04 11:15 SW 15 10.00 Fair CLR 66.2 48.2 52% 29.65 0.0
04 10:55 SW 10 10.00 Fair CLR 64.4 48.2 56% 29.65 0.0
04 10:35 S 13 10.00 Fair CLR 64.4 48.2 56% 29.66 0.0
04 10:15 SW 9 10.00 Fair CLR 62.6 48.2 60% 29.66 0.0
04 09:55 S 8 10.00 Fair CLR 60.8 46.4 59% 29.66 0.0
04 09:35 SW 7 10.00 Fair CLR 59 46.4 63% 29.66 0.0
04 09:15 SW 8 10.00 Fair CLR 59 46.4 63% 29.67 0.0
04 08:55 SW 8 10.00 Fair CLR 55.4 46.4 72% 29.67 0.0
04 08:35 S 8 10.00 Fair CLR 53.6 46.4 77% 29.68 0.0
04 08:15 SW 9 10.00 Fair CLR 53.6 44.6 72% 29.68 0.0
04 07:55 SW 10 10.00 Fair CLR 51.8 44.6 50.9 45 77% 29.68 0.0
04 07:35 SW 10 10.00 Fair CLR 50 42.8 76% 46 29.68 0.0
04 07:15 SW 9 10.00 Fair CLR 48.2 42.8 82% 45 29.67 0.0
04 06:55 SW 10 10.00 Fair CLR 46.4 42.8 87% 42 29.67 0.0
04 06:35 S 9 10.00 Fair CLR 46.4 42.8 87% 42 29.67 0.0
04 06:15 S 7 10.00 Fair CLR 44.6 41 87% 41 29.67 0.0
04 05:55 S 6 10.00 Fair CLR 46.4 41 82% 44 29.67 0.0
04 05:35 S 8 10.00 Fair CLR 46.4 41 82% 43 29.67 0.0
04 05:15 S 8 10.00 Fair CLR 46.4 41 82% 43 29.67 0.0
04 04:55 S 7 10.00 Fair CLR 46.4 41 82% 43 29.67 0.0
04 04:35 S 7 10.00 Fair CLR 46.4 41 82% 43 29.67 0.0
04 04:15 S 9 10.00 Fair CLR 48.2 42.8 82% 45 29.68 0.0
04 03:55 S 9 10.00 Fair CLR 48.2 42.8 82% 45 29.68 0.0
04 03:35 SW 10 10.00 Fair CLR 48.2 42.8 82% 44 29.69 0.0
04 03:15 S 12 10.00 Fair CLR 50 42.8 76% 46 29.7 0.0
04 02:55 SW 10 10.00 A Few Clouds FEW080 50 42.8 76% 46 29.71 0.0
04 02:35 SW 10 10.00 Fair CLR 50 42.8 76% 46 29.72 0.0
04 02:15 SW 10 10.00 Fair CLR 48.2 42.8 82% 44 29.72 0.0
04 01:55 S 8 10.00 Fair CLR 46.4 41 51.6 46 82% 43 29.73 0.0
04 01:35 S 8 10.00 A Few Clouds FEW080 46.4 41 82% 43 29.74 0.0
04 01:15 S 8 10.00 A Few Clouds FEW080 46.4 42.8 87% 43 29.74 0.0
04 00:55 S 9 10.00 Fair CLR 46.4 42.8 87% 42 29.75 0.0
04 00:35 S 8 10.00 Fair CLR 46.4 42.8 87% 43 29.75 0.0
04 00:15 S 8 10.00 Fair CLR 46.4 42.8 87% 43 29.76 0.0
03 23:55 S 9 10.00 Fair CLR 48.2 42.8 82% 45 29.76 0.0
03 23:35 S 10 10.00 Fair CLR 48.2 42.8 82% 44 29.76 0.0
03 23:15 S 12 10.00 Fair CLR 48.2 42.8 82% 44 29.76 0.0
03 22:55 S 12 10.00 Fair CLR 48.2 42.8 82% 44 29.77 0.0
03 22:35 S 13 G 17 10.00 Fair CLR 48.2 42.8 82% 43 29.77 0.0
03 22:15 S 12 10.00 Fair CLR 50 42.8 76% 46 29.77 0.0
03 21:55 S 14 10.00 Fair CLR 50 42.8 76% 45 29.77 0.0
03 21:35 S 12 10.00 Fair CLR 50 42.8 76% 46 29.77 0.0
03 21:15 S 13 G 20 10.00 Fair CLR 50 42.8 76% 46 29.77 0.0
03 20:55 S 13 10.00 Fair CLR 50 42.8 76% 46 29.77 0.0
03 20:35 S 12 G 20 10.00 Fair CLR 50 41 71% 46 29.78 0.0
03 20:15 S 15 G 18 10.00 A Few Clouds FEW110 51.8 41 67% 29.78 0.0
03 19:55 S 13 G 20 10.00 A Few Clouds FEW110 51.8 41 62.8 51.1 67% 29.79 0.0
03 19:35 S 15 G 21 10.00 Partly Cloudy FEW090 SCT110 51.8 41 67% 29.79 0.0
03 19:15 S 15 G 23 10.00 Overcast BKN090 OVC110 53.6 41 63% 29.8 0.0
03 18:55 S 15 G 21 10.00 Overcast OVC090 51.8 41 67% 29.81 0.0
03 18:35 S 14 10.00 Overcast OVC090 51.8 41 67% 29.82 0.0
03 18:15 S 13 10.00 Overcast OVC090 51.8 41 67% 29.83 0.0
03 17:55 S 9 G 20 10.00 Overcast OVC080 51.8 41 67% 29.83 0.0
03 17:35 S 14 10.00 Overcast SCT070 OVC080 51.8 41 67% 29.84 0.0
03 17:15 S 13 G 20 10.00 Overcast OVC060 51.8 39.2 62% 29.85 0.0
03 16:55 SW 13 G 23 10.00 Overcast BKN060 OVC080 51.8 39.2 62% 29.86 0.0
03 16:35 SW 15 G 24 10.00 Overcast OVC060 51.8 39.2 62% 29.86 0.0
Date Time (edt) Wind (mph) Vis. (mi.) Weather Sky Cond. Air Dwpt Max. Min. Relative Humidity Wind Chill (°F) Heat Index (°F) altimeter (in) sea level (mb) 1 hr 3 hr 6 hr
6 hour
Temperature (ºF) Pressure Precipitation (in)